Terminal Aerodrome Forecast
Issued by NWS Cleveland, OH

Home | Current Version | Previous Version | Text Only | Print | Product List | Glossary Off
Versions: 1 2 3 4 5 6 7 8 9 10 11 12 13 14 15 16 17 18

000
FTUS41 KCLE 192136 AAA
TAFYNG
TAF AMD
KYNG 192136Z 1922/2018 26010G16KT P6SM VCSH BKN040 OVC100
      TEMPO 1922/2001 VRB20G30KT 3SM -TSRA BKN025CB
     FM200100 24006KT P6SM VCSH SCT035 BKN090
      TEMPO 2008/2012 4SM BR
     FM201500 26012G18KT P6SM VCSH BKN040=

USA.gov is the U.S. government's official web portal to all federal, state and local government web resources and services.